This is the latest recevied weather packets stored in our database for station/object W8BS. If no packets are shown the sender has not sent any weather packets the latest 10 day(s).
| Time | Temp. | Humidity | Pressure | Rain* | Wind** | Luminosity | Snow |
|---|---|---|---|---|---|---|---|
| 1778193091 | 12.78° C | 54% | 1010.2 hPa | 0 mm | - | 61 W/m² | - |
| 1778192788 | 12.78° C | 53% | 1010.6 hPa | 0 mm | - | 69 W/m² | - |
| 1778192485 | 12.78° C | 57% | 1010.7 hPa | 0 mm | - | 82 W/m² | - |
| 1778192181 | 12.78° C | 55% | 1010.6 hPa | 0 mm | - | 100 W/m² | - |
| 1778191877 | 12.78° C | 56% | 1010.4 hPa | 0 mm | - | 71 W/m² | - |
| 1778191575 | 12.78° C | 54% | 1010.6 hPa | 0 mm | - | 107 W/m² | - |
| 1778191272 | 12.78° C | 54% | 1010.3 hPa | 0 mm | - | 103 W/m² | - |
| 1778190968 | 13.33° C | 53% | 1010.4 hPa | 0 mm | - | 85 W/m² | - |
| 1778190666 | 13.33° C | 53% | 1010 hPa | 0 mm | - | 92 W/m² | - |
| 1778190363 | 13.33° C | 52% | 1010 hPa | 0 mm | - | 81 W/m² | - |
| 1778190059 | 13.33° C | 54% | 1010 hPa | 0 mm | - | 166 W/m² | - |
| 1778189755 | 13.33° C | 54% | 1010.1 hPa | 0 mm | - | 134 W/m² | - |
| 1778189453 | 12.78° C | 54% | 1010.1 hPa | 0 mm | - | 142 W/m² | - |
| 1778189149 | 12.78° C | 54% | 1010.1 hPa | 0 mm | - | 112 W/m² | - |
| 1778188846 | 13.33° C | 54% | 1010 hPa | 0 mm | - | 157 W/m² | - |
| 1778188542 | 13.33° C | 55% | 1009.9 hPa | 0 mm | - | 142 W/m² | - |
| 1778188238 | 13.33° C | 53% | 1010 hPa | 0 mm | - | 526 W/m² | - |
| 1778187936 | 13.33° C | 54% | 1009.7 hPa | 0 mm | - | 116 W/m² | - |
| 1778187632 | 13.89° C | 53% | 1010 hPa | 0 mm | - | 416 W/m² | - |
| 1778187329 | 13.89° C | 52% | 1009.8 hPa | 0 mm | - | 148 W/m² | - |
| 1778187025 | 13.89° C | 53% | 1009.9 hPa | 0 mm | - | 583 W/m² | - |
| 1778186721 | 13.33° C | 54% | 1009.6 hPa | 0 mm | - | 587 W/m² | - |
| 1778186420 | 14.44° C | 50% | 1009.7 hPa | 0 mm | - | 143 W/m² | - |
| 1778186118 | 13.89° C | 52% | 1009.7 hPa | 0 mm | - | 617 W/m² | - |
| 1778185815 | 14.44° C | 50% | 1009.9 hPa | 0 mm | - | 592 W/m² | - |
* Rain latest hour (hover to see other rain measurements)
** Current wind speed in m/s (hover to see current wind gust speed)